Time;durP1;ratioP1;P1;durP2;ratioP2;P2;SDS_P1;SDS_P2;PMS_P1;PMS_P2;Temp;Humidity;BMP_temperature;BMP_pressure;BME280_temperature;BME280_humidity;BME280_pressure;Samples;Min_cycle;Max_cycle;Signal;HPM_P1;HPM_P2
2022/11/06 00:01:33;;;;;;;28.67;18.40;;;;;;;5.42;75.17;102024.38;1771718;80;21047;-84
2022/11/06 00:03:59;;;;;;;28.77;19.35;;;;;;;5.45;75.13;102023.05;1737991;80;20979;-85
2022/11/06 00:09:14;;;;;;;26.90;17.62;;;;;;;5.46;75.24;102020.85;1763887;80;20880;-86
2022/11/06 00:11:42;;;;;;;26.55;17.80;;;;;;;5.46;75.40;102017.39;1775401;80;21163;-88
2022/11/06 00:14:08;;;;;;;23.07;15.45;;;;;;;5.46;75.66;102016.95;1773207;80;20959;-87
2022/11/06 00:16:38;;;;;;;20.95;14.13;;;;;;;5.50;75.65;102017.77;1766531;80;20932;-86
2022/11/06 00:19:05;;;;;;;26.65;16.00;;;;;;;5.50;75.58;102012.12;1770236;80;20914;-87
2022/11/06 00:21:34;;;;;;;22.73;15.32;;;;;;;5.53;75.90;102009.91;1777183;80;20916;-86
2022/11/06 00:24:02;;;;;;;19.75;12.65;;;;;;;5.55;75.65;102013.34;1776986;80;21195;-86
2022/11/06 00:26:30;;;;;;;19.55;13.72;;;;;;;5.49;75.43;102013.44;1780846;80;20928;-87
2022/11/06 00:28:56;;;;;;;24.07;14.55;;;;;;;5.40;75.45;102006.63;1764786;80;20951;-89
2022/11/06 00:31:31;;;;;;;19.87;14.10;;;;;;;5.31;75.55;102001.13;1776102;80;20940;-87
2022/11/06 00:33:59;;;;;;;17.98;12.10;;;;;;;5.26;75.56;102003.41;1770524;80;20956;-86
2022/11/06 00:36:31;;;;;;;17.25;12.05;;;;;;;5.18;75.70;102003.54;1776152;80;21092;-86
2022/11/06 00:38:58;;;;;;;15.58;11.55;;;;;;;5.09;75.89;102001.94;1772597;80;20968;-85
2022/11/06 00:41:25;;;;;;;18.12;12.03;;;;;;;5.04;76.15;102002.42;1765853;80;20842;-87
2022/11/06 00:43:55;;;;;;;14.87;10.53;;;;;;;5.03;76.22;101999.41;1773999;80;20927;-87
2022/11/06 00:46:22;;;;;;;17.87;11.50;;;;;;;5.05;76.20;102000.70;1774170;79;21001;-87
2022/11/06 00:48:49;;;;;;;17.37;11.18;;;;;;;5.06;76.12;101999.81;1778560;79;21068;-88
2022/11/06 00:51:25;;;;;;;14.25;11.00;;;;;;;5.06;76.08;101999.81;1767644;79;21030;-87
2022/11/06 00:54:01;;;;;;;16.52;10.98;;;;;;;5.04;76.01;102002.42;1773832;80;21390;-87
2022/11/06 00:56:28;;;;;;;15.85;10.68;;;;;;;5.01;76.04;102001.62;1738385;82;21398;-88
2022/11/06 00:58:54;;;;;;;14.87;10.82;;;;;;;4.98;76.10;102001.23;1775741;80;20916;-88
2022/11/06 01:01:25;;;;;;;15.85;10.55;;;;;;;4.97;76.39;101991.70;1775443;80;21164;-86
2022/11/06 01:03:54;;;;;;;15.98;10.13;;;;;;;4.98;76.34;101985.64;1775887;80;20936;-88
2022/11/06 01:06:25;;;;;;;15.35;10.43;;;;;;;4.95;76.24;101986.52;1771019;80;20955;-87
2022/11/06 01:08:53;;;;;;;14.75;11.22;;;;;;;4.90;76.31;101983.13;1768333;80;20856;-88
2022/11/06 01:11:24;;;;;;;12.53;9.83;;;;;;;4.90;76.35;101979.69;1774199;80;20955;-87
2022/11/06 01:13:54;;;;;;;11.05;9.43;;;;;;;4.91;76.31;101978.37;1775589;80;20936;-87
2022/11/06 01:16:21;;;;;;;12.15;9.73;;;;;;;4.90;76.20;101983.58;1765794;80;21456;-87
2022/11/06 01:18:47;;;;;;;13.80;9.38;;;;;;;4.83;76.19;101989.30;1768465;80;20842;-86
2022/11/06 01:21:19;;;;;;;13.32;9.88;;;;;;;4.78;76.32;101978.98;1779759;80;20908;-85
2022/11/06 01:23:46;;;;;;;13.78;9.03;;;;;;;4.75;76.43;101982.89;1771212;80;20915;-86
2022/11/06 01:26:14;;;;;;;13.95;9.63;;;;;;;4.75;76.22;101983.34;1771178;80;21154;-86
2022/11/06 01:28:40;;;;;;;11.60;9.30;;;;;;;4.70;76.23;101978.66;1776394;80;20932;-87
2022/11/06 01:31:15;;;;;;;12.28;8.80;;;;;;;4.66;76.30;101981.73;1763878;80;20967;-87
2022/11/06 01:33:41;;;;;;;15.98;9.70;;;;;;;4.67;76.57;101989.95;1768393;80;20975;-87
2022/11/06 01:36:10;;;;;;;12.28;8.45;;;;;;;4.66;76.24;101990.82;1771028;80;21058;-86
2022/11/06 01:38:42;;;;;;;13.05;10.10;;;;;;;4.62;76.19;101985.69;1768033;80;21821;-86
2022/11/06 01:41:15;;;;;;;13.50;8.65;;;;;;;4.57;76.30;101983.16;1770740;80;20995;-86
2022/11/06 01:44:00;;;;;;;15.95;9.15;;;;;;;4.57;76.29;101988.34;1769644;80;20932;-86
2022/11/06 01:46:34;;;;;;;12.73;8.45;;;;;;;4.58;76.09;101987.48;1781201;80;21002;-86
2022/11/06 01:49:08;;;;;;;15.00;9.28;;;;;;;4.57;75.86;101993.55;1768169;80;21398;-86
2022/11/06 01:51:40;;;;;;;11.30;7.95;;;;;;;4.57;75.75;102004.79;1781522;80;21881;-88
2022/11/06 01:54:07;;;;;;;11.57;8.43;;;;;;;4.56;75.28;101995.73;1767003;80;20943;-87
2022/11/06 01:56:34;;;;;;;13.55;9.68;;;;;;;4.51;75.28;101997.09;1766766;80;20932;-86
2022/11/06 01:59:00;;;;;;;13.08;9.03;;;;;;;4.47;75.27;102003.20;1775534;80;20988;-86
2022/11/06 02:01:27;;;;;;;11.83;9.13;;;;;;;4.44;75.18;101998.02;1770937;80;21065;-86
2022/11/06 02:04:03;;;;;;;12.03;8.93;;;;;;;4.41;75.18;102004.56;1761353;80;21089;-87
2022/11/06 02:06:30;;;;;;;11.15;8.53;;;;;;;4.42;75.07;102001.52;1770122;80;20980;-86
2022/11/06 02:08:57;;;;;;;11.75;8.55;;;;;;;4.41;75.11;102007.17;1774127;80;20936;-85
2022/11/06 02:11:24;;;;;;;11.93;8.63;;;;;;;4.42;75.19;102006.27;1764156;80;20951;-86
2022/11/06 02:14:20;;;;;;;11.28;8.38;;;;;;;4.43;74.82;102007.16;1775576;80;20881;-86
2022/11/06 02:16:55;;;;;;;14.68;9.65;;;;;;;4.42;74.65;102008.02;1747110;80;21362;-86
2022/11/06 02:19:36;;;;;;;13.60;9.28;;;;;;;4.41;74.83;102005.87;1774883;80;20900;-88
2022/11/06 02:22:28;;;;;;;11.97;9.20;;;;;;;4.43;74.91;102011.05;1771166;80;21385;-87
2022/11/06 02:25:25;;;;;;;11.18;8.73;;;;;;;4.45;74.78;102005.41;1776748;80;20943;-85
2022/11/06 02:28:02;;;;;;;12.50;9.63;;;;;;;4.45;74.64;102005.41;1775067;80;20917;-86
2022/11/06 02:30:31;;;;;;;11.53;9.28;;;;;;;4.44;74.29;102014.06;1771288;80;21925;-87
2022/11/06 02:33:01;;;;;;;10.23;8.60;;;;;;;4.44;74.29;102012.31;1776781;79;21007;-87
2022/11/06 02:35:35;;;;;;;13.20;10.00;;;;;;;4.41;73.98;102016.25;1768922;80;20951;-87
2022/11/06 02:38:11;;;;;;;12.68;9.75;;;;;;;4.36;73.79;102021.95;1770190;80;20956;-87
2022/11/06 02:40:47;;;;;;;14.83;9.70;;;;;;;4.30;74.00;102025.91;1775275;80;20995;-87
2022/11/06 02:43:14;;;;;;;13.95;9.55;;;;;;;4.27;74.11;102029.41;1766277;80;21059;-85
2022/11/06 02:46:20;;;;;;;14.33;9.40;;;;;;;4.27;74.07;102034.59;1763344;80;20909;-88
2022/11/06 02:48:52;;;;;;;16.02;9.60;;;;;;;4.24;73.99;102027.27;1763356;80;20983;-85
2022/11/06 02:51:22;;;;;;;13.15;9.53;;;;;;;4.22;74.06;102031.62;1762025;80;20988;-85
2022/11/06 02:53:50;;;;;;;12.98;9.65;;;;;;;4.22;73.98;102036.36;1760375;80;21017;-85
2022/11/06 02:56:24;;;;;;;12.82;9.25;;;;;;;4.22;74.01;102036.36;1766454;80;21222;-87
2022/11/06 02:58:55;;;;;;;16.73;10.43;;;;;;;4.21;74.00;102041.59;1756845;80;21170;-86
2022/11/06 03:01:34;;;;;;;15.70;10.25;;;;;;;4.19;73.98;102048.54;1775947;80;20959;-88
2022/11/06 03:04:04;;;;;;;13.98;9.90;;;;;;;4.15;73.76;102052.44;1768496;80;21480;-86
2022/11/06 03:06:47;;;;;;;13.40;10.35;;;;;;;4.11;73.89;102045.59;1776028;80;21480;-86
2022/11/06 03:09:18;;;;;;;12.85;10.45;;;;;;;4.09;73.92;102047.75;1775235;80;21171;-86
2022/11/06 03:11:44;;;;;;;13.58;10.78;;;;;;;4.09;74.39;102053.83;1764709;80;20923;-87
2022/11/06 03:14:21;;;;;;;15.95;10.78;;;;;;;4.11;74.48;102048.60;1770624;80;21469;-87
2022/11/06 03:16:58;;;;;;;16.42;10.93;;;;;;;4.14;74.50;102052.48;1773550;80;20861;-86
2022/11/06 03:19:28;;;;;;;16.48;12.15;;;;;;;4.19;74.49;102051.14;1776688;80;20889;-87
2022/11/06 03:22:09;;;;;;;15.65;12.00;;;;;;;4.22;74.39;102058.88;1770480;80;21145;-86
2022/11/06 03:24:59;;;;;;;15.63;11.78;;;;;;;4.23;74.18;102051.53;1775091;80;20889;-86
2022/11/06 03:27:56;;;;;;;15.25;10.88;;;;;;;4.25;74.27;102056.27;1742009;82;20975;-86
2022/11/06 03:30:22;;;;;;;14.00;10.93;;;;;;;4.28;74.28;102063.57;1672911;83;20933;-86
2022/11/06 03:32:59;;;;;;;16.30;11.48;;;;;;;4.29;73.92;102059.23;1768291;80;20991;-85
2022/11/06 03:35:34;;;;;;;18.50;11.33;;;;;;;4.29;74.22;102064.01;1760910;80;21844;-86
2022/11/06 03:38:17;;;;;;;18.95;12.20;;;;;;;4.29;74.09;102060.11;1766823;80;20991;-84
2022/11/06 03:40:48;;;;;;;18.37;13.20;;;;;;;4.30;74.05;102055.77;1770871;80;20929;-84
2022/11/06 03:43:16;;;;;;;19.92;14.18;;;;;;;4.31;74.01;102063.56;1770358;80;20873;-86
2022/11/06 03:45:43;;;;;;;15.25;12.68;;;;;;;4.30;73.99;102054.03;1766963;80;20920;-87
2022/11/06 03:48:24;;;;;;;19.95;13.75;;;;;;;4.28;73.71;102054.48;1765823;80;21233;-88
2022/11/06 03:51:11;;;;;;;18.95;12.85;;;;;;;4.24;73.72;102053.23;1705864;83;20950;-87
2022/11/06 03:53:47;;;;;;;17.40;13.58;;;;;;;4.19;73.82;102057.18;1730217;82;20893;-87
2022/11/06 03:56:31;;;;;;;16.25;11.88;;;;;;;4.21;73.97;102059.33;1732608;82;21016;-86
2022/11/06 03:58:58;;;;;;;18.25;13.30;;;;;;;4.24;73.99;102058.43;1768298;80;21018;-86
2022/11/06 04:01:27;;;;;;;18.52;14.23;;;;;;;4.23;74.06;102056.28;1746271;80;21243;-85
2022/11/06 04:04:02;;;;;;;18.67;12.98;;;;;;;4.21;74.05;102060.63;1770018;80;20897;-87
2022/11/06 04:06:37;;;;;;;15.40;11.75;;;;;;;4.22;74.17;102060.18;1739151;79;20932;-86
2022/11/06 04:14:39;;;;;;;19.45;12.45;;;;;;;4.14;74.47;102056.38;1697905;82;21180;-83
2022/11/06 04:17:10;;;;;;;19.30;12.90;;;;;;;4.13;74.76;102053.34;1731736;82;21673;-84
2022/11/06 04:19:40;;;;;;;20.52;13.78;;;;;;;4.13;74.73;102055.48;1734959;82;21125;-84
2022/11/06 04:22:18;;;;;;;17.12;12.82;;;;;;;4.16;74.96;102048.14;1750447;82;20943;-87
2022/11/06 04:28:29;;;;;;;17.50;12.35;;;;;;;4.21;74.81;102054.58;1735222;82;21216;-86
2022/11/06 04:31:20;;;;;;;21.05;13.58;;;;;;;4.20;74.84;102061.93;1734898;82;20940;-83
2022/11/06 04:34:17;;;;;;;19.45;13.58;;;;;;;4.19;74.88;102066.27;1739606;82;20884;-87
2022/11/06 04:36:59;;;;;;;19.90;13.75;;;;;;;4.20;74.95;102073.16;1736280;82;20949;-87
2022/11/06 04:39:30;;;;;;;18.40;12.68;;;;;;;4.18;74.85;102080.14;1742763;82;20940;-87
2022/11/06 04:42:12;;;;;;;20.20;14.10;;;;;;;4.14;74.95;102075.41;1738124;82;21840;-85
2022/11/06 04:44:53;;;;;;;19.30;13.03;;;;;;;4.11;75.04;102071.55;1737427;82;20988;-87
2022/11/06 04:47:20;;;;;;;18.73;12.35;;;;;;;4.05;75.15;102075.49;1770243;80;21364;-87
2022/11/06 04:49:49;;;;;;;16.48;12.33;;;;;;;4.05;75.35;102074.20;1779091;80;20920;-88
2022/11/06 04:52:19;;;;;;;17.48;13.40;;;;;;;4.05;75.47;102078.09;1770454;80;20868;-87
2022/11/06 04:54:46;;;;;;;17.87;13.20;;;;;;;4.05;75.84;102081.13;1774392;80;21086;-89
2022/11/06 04:57:12;;;;;;;20.95;14.25;;;;;;;4.07;75.84;102081.95;1768816;80;21430;-87
2022/11/06 04:59:42;;;;;;;20.65;14.53;;;;;;;4.06;75.74;102076.34;1761595;80;21514;-90
2022/11/06 05:02:09;;;;;;;22.60;13.80;;;;;;;4.06;75.88;102077.20;1772538;80;20908;-86
2022/11/06 05:04:36;;;;;;;20.97;13.93;;;;;;;4.10;76.02;102085.39;1766671;80;20860;-90
2022/11/06 05:07:03;;;;;;;17.40;13.38;;;;;;;4.15;76.02;102090.09;1770868;80;21254;-87
2022/11/06 05:09:29;;;;;;;17.82;14.23;;;;;;;4.18;75.95;102094.42;1764444;80;20950;-87
2022/11/06 05:11:56;;;;;;;20.88;14.18;;;;;;;4.18;76.04;102089.23;1762153;80;20900;-86
2022/11/06 05:14:23;;;;;;;22.35;14.20;;;;;;;4.18;76.03;102095.72;1774382;80;21429;-87
2022/11/06 05:16:49;;;;;;;18.30;13.72;;;;;;;4.22;76.01;102099.13;1764700;80;20956;-87
2022/11/06 05:19:16;;;;;;;23.73;15.72;;;;;;;4.23;75.99;102094.37;1775521;80;21155;-88
2022/11/06 05:25:10;;;;;;;18.82;13.65;;;;;;;4.33;76.08;102108.97;1737499;82;20897;-87
2022/11/06 05:27:44;;;;;;;22.37;14.00;;;;;;;4.37;75.91;102114.55;1740198;80;20912;-86
2022/11/06 05:30:11;;;;;;;19.90;14.20;;;;;;;4.40;75.84;102120.16;1765846;80;20988;-89
2022/11/06 05:32:41;;;;;;;22.07;13.45;;;;;;;4.41;75.73;102112.36;1752818;80;21269;-89
2022/11/06 05:35:09;;;;;;;19.90;13.90;;;;;;;4.43;75.66;102119.70;1752053;80;21050;-88
2022/11/06 05:37:36;;;;;;;20.90;14.55;;;;;;;4.48;75.86;102123.09;1739583;80;20984;-88
2022/11/06 05:40:03;;;;;;;20.12;13.98;;;;;;;4.50;75.46;102121.34;1749464;80;21039;-89
2022/11/06 05:42:30;;;;;;;21.10;15.18;;;;;;;4.50;75.50;102127.84;1767811;80;20999;-88
2022/11/06 05:44:57;;;;;;;24.92;16.02;;;;;;;4.53;75.48;102125.64;1751746;80;21313;-89
2022/11/06 05:47:23;;;;;;;20.45;14.80;;;;;;;4.56;75.47;102125.63;1754635;80;21039;-88
2022/11/06 05:49:50;;;;;;;26.50;16.67;;;;;;;4.59;75.57;102123.44;1762994;80;21054;-88
2022/11/06 05:52:16;;;;;;;20.20;14.60;;;;;;;4.64;75.66;102132.88;1759262;80;20988;-87
2022/11/06 05:54:43;;;;;;;22.62;15.68;;;;;;;4.68;75.58;102133.27;1768168;80;21130;-89
2022/11/06 05:57:11;;;;;;;20.57;14.93;;;;;;;4.71;75.35;102129.36;1772558;80;21233;-87
2022/11/06 05:59:39;;;;;;;21.30;15.40;;;;;;;4.73;75.09;102129.33;1774425;80;20869;-89
2022/11/06 06:02:05;;;;;;;25.17;15.32;;;;;;;4.75;75.19;102136.22;1767823;80;21057;-88
2022/11/06 06:04:33;;;;;;;21.42;13.53;;;;;;;4.79;75.02;102135.76;1749928;80;20987;-87
2022/11/06 06:06:59;;;;;;;23.15;16.52;;;;;;;4.78;74.64;102143.15;1749680;80;20982;-90
2022/11/06 06:09:26;;;;;;;20.75;15.68;;;;;;;4.73;74.73;102139.72;1751931;80;21130;-88
2022/11/06 06:11:53;;;;;;;18.62;12.53;;;;;;;4.72;74.78;102136.71;1772406;80;21043;-89
2022/11/06 06:14:22;;;;;;;18.73;13.85;;;;;;;4.71;74.82;102138.45;1695741;82;20954;-88
2022/11/06 06:16:50;;;;;;;17.35;14.50;;;;;;;4.74;74.77;102140.16;1769272;80;20975;-88
2022/11/06 06:19:17;;;;;;;24.25;14.30;;;;;;;4.74;74.49;102143.61;1688155;83;20893;-89
2022/11/06 06:21:45;;;;;;;20.72;14.55;;;;;;;4.70;74.57;102140.62;1760909;80;20913;-90
2022/11/06 06:24:12;;;;;;;18.57;14.83;;;;;;;4.73;74.80;102147.52;1773639;80;20948;-89
2022/11/06 06:26:39;;;;;;;20.25;14.35;;;;;;;4.76;74.82;102141.00;1767733;80;21315;-88
2022/11/06 06:29:05;;;;;;;21.10;13.68;;;;;;;4.77;74.73;102144.01;1768499;81;21478;-89
2022/11/06 06:31:33;;;;;;;17.20;13.60;;;;;;;4.80;74.67;102140.06;1745941;80;20931;-90
2022/11/06 06:34:00;;;;;;;22.60;13.90;;;;;;;4.84;74.65;102138.30;1740620;80;21405;-88
2022/11/06 06:36:27;;;;;;;22.27;15.10;;;;;;;4.86;74.85;102138.70;1769395;80;20865;-89
2022/11/06 06:38:54;;;;;;;21.62;13.50;;;;;;;4.89;74.55;102136.08;1772608;80;21362;-90
2022/11/06 06:41:23;;;;;;;19.32;15.25;;;;;;;4.93;74.69;102139.05;1741878;80;21468;-89
2022/11/06 06:43:54;;;;;;;18.40;13.38;;;;;;;4.96;74.62;102139.47;1773536;80;21112;-88
2022/11/06 06:46:26;;;;;;;22.00;13.08;;;;;;;4.96;74.47;102142.92;1733891;82;20869;-91
2022/11/06 06:48:53;;;;;;;17.80;12.23;;;;;;;4.97;74.54;102142.48;1762031;80;20936;-89
2022/11/06 06:51:19;;;;;;;23.57;14.28;;;;;;;4.99;74.63;102145.47;1767162;80;20964;-90
2022/11/06 06:53:46;;;;;;;17.65;13.45;;;;;;;4.99;74.42;102143.32;1773447;80;20924;-89
2022/11/06 06:56:13;;;;;;;19.25;13.35;;;;;;;5.01;74.46;102140.71;1752427;80;20957;-87
2022/11/06 06:58:40;;;;;;;20.82;13.75;;;;;;;5.02;74.67;102143.27;1747528;80;21176;-90
2022/11/06 07:01:09;;;;;;;19.70;13.93;;;;;;;5.04;74.88;102145.42;1763757;80;20892;-89
2022/11/06 07:03:36;;;;;;;21.42;14.40;;;;;;;5.09;74.80;102143.64;1766723;80;21447;-90
2022/11/06 07:06:03;;;;;;;26.93;17.23;;;;;;;5.15;74.80;102141.38;1746039;80;20995;-89
2022/11/06 07:08:30;;;;;;;23.90;15.83;;;;;;;5.18;74.28;102135.72;1745524;80;20975;-87
2022/11/06 07:11:02;;;;;;;25.57;17.70;;;;;;;5.19;74.27;102135.27;1775318;80;21166;-87
2022/11/06 07:13:30;;;;;;;21.87;14.85;;;;;;;5.24;74.30;102138.66;1751086;80;20944;-88
2022/11/06 07:15:57;;;;;;;20.57;15.68;;;;;;;5.31;74.21;102143.34;1772169;80;20940;-89
2022/11/06 07:18:24;;;;;;;20.40;14.43;;;;;;;5.37;74.04;102139.36;1770301;80;20896;-88
2022/11/06 07:20:53;;;;;;;19.52;14.60;;;;;;;5.40;74.08;102139.30;1764381;80;20959;-89
2022/11/06 07:23:20;;;;;;;22.85;15.68;;;;;;;5.45;73.92;102140.12;1776779;80;21161;-89
2022/11/06 07:25:52;;;;;;;28.27;18.57;;;;;;;5.49;73.89;102138.31;1749803;80;20903;-88
2022/11/06 07:28:20;;;;;;;28.92;16.87;;;;;;;5.55;73.83;102132.59;1765364;80;20975;-89
2022/11/06 07:30:47;;;;;;;26.70;15.48;;;;;;;5.61;73.60;102133.80;1752051;80;20980;-88
2022/11/06 07:33:16;;;;;;;21.30;15.18;;;;;;;5.69;73.47;102138.91;1771150;80;21031;-87
2022/11/06 07:35:44;;;;;;;20.77;16.62;;;;;;;5.76;72.91;102137.92;1773922;80;21321;-88
2022/11/06 07:38:10;;;;;;;26.35;18.80;;;;;;;5.79;72.57;102127.45;1770346;80;20846;-88
2022/11/06 07:40:37;;;;;;;25.02;16.25;;;;;;;5.87;72.36;102126.47;1751136;80;20971;-89
2022/11/06 07:43:07;;;;;;;34.35;23.52;;;;;;;5.94;72.01;102133.31;1751070;80;21345;-88
2022/11/06 07:45:35;;;;;;;26.55;19.27;;;;;;;6.03;71.84;102127.98;1754591;80;21053;-88
2022/11/06 07:48:03;;;;;;;26.10;18.05;;;;;;;6.13;71.53;102136.49;1749022;80;21104;-88
2022/11/06 07:50:29;;;;;;;25.65;17.75;;;;;;;6.21;70.98;102126.81;1762626;80;21023;-88
2022/11/06 07:52:56;;;;;;;21.73;17.73;;;;;;;6.25;70.29;102125.88;1717636;81;21050;-87
2022/11/06 07:55:23;;;;;;;26.73;19.98;;;;;;;6.28;70.07;102131.02;1776190;80;20964;-89
2022/11/06 07:57:49;;;;;;;22.82;16.50;;;;;;;6.32;69.85;102131.38;1750953;80;20928;-88
2022/11/06 08:00:17;;;;;;;21.07;16.02;;;;;;;6.37;69.40;102136.52;1768383;80;21292;-87
2022/11/06 08:02:45;;;;;;;24.77;16.57;;;;;;;6.38;68.93;102123.47;1776369;80;21058;-88
2022/11/06 08:05:16;;;;;;;25.27;18.77;;;;;;;6.41;68.52;102122.55;1688899;83;20914;-88
2022/11/06 08:07:45;;;;;;;26.97;20.48;;;;;;;6.40;68.62;102136.02;1740119;80;20975;-88
2022/11/06 08:10:12;;;;;;;25.97;19.73;;;;;;;6.41;68.62;102134.27;1756821;80;20941;-87
2022/11/06 08:12:42;;;;;;;33.53;20.77;;;;;;;6.43;68.45;102137.70;1742631;80;20987;-86
2022/11/06 08:15:09;;;;;;;25.92;18.42;;;;;;;6.49;68.68;102138.02;1773618;80;20967;-86
2022/11/06 08:17:38;;;;;;;24.25;17.48;;;;;;;6.61;68.26;102139.96;1763416;80;21023;-86
2022/11/06 08:20:08;;;;;;;24.18;17.00;;;;;;;6.71;67.65;102142.39;1759192;80;20991;-86
2022/11/06 08:22:37;;;;;;;24.92;16.93;;;;;;;6.76;67.31;102137.94;1759372;80;20916;-88
2022/11/06 08:25:04;;;;;;;23.73;15.72;;;;;;;6.83;66.87;102129.13;1749726;80;21852;-88
2022/11/06 08:27:32;;;;;;;24.45;17.10;;;;;;;6.92;66.99;102135.45;1750791;80;21020;-89
2022/11/06 08:29:59;;;;;;;23.98;15.90;;;;;;;7.03;66.46;102131.33;1746987;81;21011;-87
2022/11/06 08:32:29;;;;;;;20.52;13.28;;;;;;;7.13;66.15;102125.46;1753999;81;21371;-88
2022/11/06 08:34:57;;;;;;;20.08;13.90;;;;;;;7.25;65.09;102126.52;1754190;81;21070;-86
2022/11/06 08:37:25;;;;;;;19.57;13.43;;;;;;;7.30;64.67;102128.57;1757414;80;21915;-89
2022/11/06 08:39:51;;;;;;;18.67;13.88;;;;;;;7.36;64.04;102124.52;1764518;80;20963;-88
2022/11/06 08:42:21;;;;;;;17.77;13.15;;;;;;;7.39;64.08;102130.97;1740962;80;20951;-89
2022/11/06 08:44:48;;;;;;;16.50;12.05;;;;;;;7.42;63.80;102137.87;1720818;82;20956;-89
2022/11/06 08:48:44;;;;;;;18.30;13.53;;;;;;;7.51;63.86;102129.83;1854144;77;23893;-88
2022/11/06 08:51:12;;;;;;;16.65;12.55;;;;;;;7.51;63.57;102135.05;1826509;78;20931;-87
2022/11/06 08:53:40;;;;;;;20.40;13.83;;;;;;;7.52;62.82;102131.55;1795154;78;21479;-87
2022/11/06 08:56:07;;;;;;;18.05;13.98;;;;;;;7.50;62.66;102133.80;1794316;78;20871;-87
2022/11/06 08:58:36;;;;;;;17.23;13.88;;;;;;;7.48;62.85;102137.28;1826087;78;20911;-87
2022/11/06 09:01:04;;;;;;;15.20;12.05;;;;;;;7.48;62.76;102132.52;1818305;78;20856;-90
2022/11/06 09:03:32;;;;;;;17.73;14.63;;;;;;;7.49;62.44;102136.83;1794284;78;20986;-89
2022/11/06 09:06:01;;;;;;;24.80;18.12;;;;;;;7.44;62.07;102136.94;1826024;78;21168;-89
2022/11/06 09:08:30;;;;;;;14.68;11.38;;;;;;;7.41;61.89;102134.41;1826059;78;20926;-89
2022/11/06 09:11:00;;;;;;;17.40;13.90;;;;;;;7.38;61.24;102137.09;1826280;78;20876;-89
2022/11/06 09:13:28;;;;;;;18.90;14.75;;;;;;;7.33;61.19;102144.59;1821362;78;21014;-90
2022/11/06 09:15:55;;;;;;;16.37;11.97;;;;;;;7.29;61.56;102141.19;1826662;78;20919;-89
2022/11/06 09:18:23;;;;;;;13.43;10.58;;;;;;;7.32;61.39;102145.50;1826142;78;22017;-89
2022/11/06 09:20:55;;;;;;;13.13;9.43;;;;;;;7.33;61.60;102148.06;1826390;78;20871;-89
2022/11/06 09:23:22;;;;;;;18.30;12.85;;;;;;;7.36;61.15;102151.05;1826539;78;20895;-91
2022/11/06 09:25:50;;;;;;;14.95;11.95;;;;;;;7.36;60.97;102149.73;1826433;78;20959;-93
2022/11/06 09:28:18;;;;;;;13.45;11.03;;;;;;;7.41;61.22;102157.05;1827168;78;20891;-89
2022/11/06 09:30:46;;;;;;;15.08;10.00;;;;;;;7.48;61.28;102158.62;1826593;78;20922;-89
2022/11/06 09:33:15;;;;;;;13.60;10.82;;;;;;;7.53;60.33;102160.67;1826463;78;20986;-92
2022/11/06 09:35:43;;;;;;;11.83;9.95;;;;;;;7.54;59.89;102162.41;1794751;78;20959;-91
2022/11/06 09:38:11;;;;;;;15.65;11.28;;;;;;;7.56;59.97;102158.43;1826347;78;21005;-91
2022/11/06 09:40:56;;;;;;;14.03;10.80;;;;;;;7.58;60.22;102161.87;1827454;78;20844;-91
2022/11/06 09:44:08;;;;;;;17.02;12.85;;;;;;;7.60;60.26;102160.97;1827205;78;21258;-91
2022/11/06 09:46:39;;;;;;;16.17;12.25;;;;;;;7.60;60.39;102160.08;1826444;78;21348;-90
2022/11/06 09:49:36;;;;;;;16.12;12.10;;;;;;;7.56;60.46;102159.73;1805582;79;20905;-87
2022/11/06 09:52:33;;;;;;;16.45;11.70;;;;;;;7.52;60.80;102152.44;1805087;78;20976;-89
2022/11/06 09:55:26;;;;;;;15.75;11.75;;;;;;;7.56;60.96;102159.31;1801016;79;20998;-92
2022/11/06 09:58:05;;;;;;;17.90;12.63;;;;;;;7.60;60.79;102153.55;1804864;79;21827;-91
2022/11/06 10:00:41;;;;;;;18.75;14.63;;;;;;;7.67;61.03;102156.46;1797856;79;20991;-90
2022/11/06 10:03:19;;;;;;;18.20;13.83;;;;;;;7.75;60.53;102149.28;1804494;79;20975;-90
2022/11/06 10:05:49;;;;;;;16.90;12.55;;;;;;;7.80;60.35;102148.75;1724994;82;20970;-87
2022/11/06 10:08:24;;;;;;;20.05;13.85;;;;;;;7.82;59.91;102156.08;1678215;83;20903;-88
2022/11/06 10:11:16;;;;;;;16.95;12.55;;;;;;;7.80;60.46;102140.03;1725693;82;20951;-89
2022/11/06 10:14:10;;;;;;;27.13;18.92;;;;;;;7.82;60.67;102144.33;1725123;83;20947;-89
2022/11/06 10:17:01;;;;;;;24.67;16.62;;;;;;;7.84;60.18;102141.23;1724375;81;20923;-90
2022/11/06 10:19:38;;;;;;;24.80;15.32;;;;;;;7.81;60.28;102134.78;1724382;82;20911;-89
2022/11/06 10:22:15;;;;;;;17.00;12.70;;;;;;;7.81;60.47;102126.10;1699859;83;20915;-89
2022/11/06 10:25:04;;;;;;;17.23;12.30;;;;;;;7.83;60.45;102130.39;1717569;82;21156;-91
2022/11/06 10:27:36;;;;;;;15.28;11.48;;;;;;;7.84;59.95;102129.93;1703466;83;20995;-89
2022/11/06 10:30:11;;;;;;;13.93;10.90;;;;;;;7.82;59.54;102128.66;1724393;80;20971;-90
2022/11/06 10:33:18;;;;;;;14.30;11.68;;;;;;;7.82;59.64;102123.43;1724111;82;21004;-90
2022/11/06 10:36:09;;;;;;;14.43;10.65;;;;;;;7.88;59.85;102127.66;1726607;83;21013;-88
2022/11/06 10:38:38;;;;;;;15.75;11.90;;;;;;;7.95;59.60;102125.75;1726064;82;21120;-90
2022/11/06 10:41:19;;;;;;;19.55;12.37;;;;;;;7.96;59.52;102123.54;1725430;82;20963;-90
2022/11/06 10:44:02;;;;;;;16.57;12.90;;;;;;;7.94;59.23;102123.60;1782716;79;20908;-91
2022/11/06 10:46:36;;;;;;;15.80;11.80;;;;;;;7.93;59.01;102119.25;1804300;78;21007;-91
2022/11/06 10:49:14;;;;;;;19.17;13.72;;;;;;;7.88;58.84;102119.83;1809161;78;20916;-89
2022/11/06 10:52:12;;;;;;;16.07;11.48;;;;;;;7.82;59.42;102110.38;1782137;79;20971;-90
2022/11/06 10:55:03;;;;;;;16.52;10.70;;;;;;;7.84;59.74;102115.11;1809148;79;20987;-88
2022/11/06 10:57:54;;;;;;;14.75;10.90;;;;;;;7.87;59.46;102111.14;1808578;78;21393;-89
2022/11/06 11:00:21;;;;;;;11.75;10.13;;;;;;;7.85;59.08;102110.77;1804898;79;20975;-89
2022/11/06 11:02:58;;;;;;;12.53;10.25;;;;;;;7.84;59.10;102111.19;1780561;78;20877;-89
2022/11/06 11:05:48;;;;;;;12.75;9.95;;;;;;;7.84;59.58;102107.28;1809298;78;21237;-91
2022/11/06 11:08:39;;;;;;;13.80;11.22;;;;;;;7.92;59.43;102102.34;1732805;82;20961;-90
2022/11/06 11:11:27;;;;;;;15.50;11.53;;;;;;;7.98;59.38;102100.85;1628312;88;20951;-90
2022/11/06 11:14:05;;;;;;;19.25;11.22;;;;;;;8.03;58.94;102106.84;1663834;84;20912;-90
2022/11/06 11:16:58;;;;;;;13.25;10.98;;;;;;;8.05;58.62;102101.98;1663923;84;21579;-89
2022/11/06 11:22:52;;;;;;;11.28;9.65;;;;;;;8.12;58.42;102101.37;1493578;94;21089;-90
2022/11/06 11:26:26;;;;;;;;;;;;;;;;;;;;;
2022/11/06 11:28:56;;;;;;;;;;;;;;;;;;;;;
2022/11/06 11:31:34;;;;;;;13.45;10.08;;;;;;;8.06;57.98;102101.52;1501376;94;21063;-90
2022/11/06 11:34:06;;;;;;;15.13;10.60;;;;;;;8.02;57.83;102096.81;1506913;94;21112;-89
2022/11/06 11:36:55;;;;;;;12.82;9.75;;;;;;;8.01;57.94;102092.50;1507035;94;21042;-89
2022/11/06 11:39:37;;;;;;;13.53;10.38;;;;;;;8.02;57.70;102099.42;1507345;94;21030;-88
2022/11/06 11:42:29;;;;;;;16.70;12.40;;;;;;;8.01;57.46;102102.10;1517434;92;20960;-88
2022/11/06 11:45:13;;;;;;;14.60;10.32;;;;;;;8.00;57.36;102102.52;1533618;92;20981;-88
2022/11/06 11:47:45;;;;;;;16.00;11.63;;;;;;;8.00;57.42;102105.13;1541673;91;21177;-89
2022/11/06 11:50:31;;;;;;;13.18;11.30;;;;;;;7.99;57.15;102099.52;1528759;93;21002;-90
2022/11/06 11:53:05;;;;;;;12.78;9.98;;;;;;;7.99;57.07;102098.21;1522821;93;20976;-89
2022/11/06 11:55:41;;;;;;;14.03;11.28;;;;;;;7.95;56.70;102096.56;1529190;91;21051;-90
2022/11/06 11:58:27;;;;;;;13.55;10.25;;;;;;;7.92;56.76;102093.20;1538034;89;20963;-88
2022/11/06 12:01:00;;;;;;;14.90;10.72;;;;;;;7.93;57.02;102093.59;1595862;90;21274;-88
2022/11/06 12:03:42;;;;;;;12.40;11.10;;;;;;;7.94;57.16;102087.03;1575736;90;21071;-89
2022/11/06 12:06:13;;;;;;;16.55;12.23;;;;;;;7.97;57.22;102089.55;1595704;90;21036;-88
2022/11/06 12:08:50;;;;;;;15.38;11.57;;;;;;;7.98;56.93;102091.70;1575235;90;21129;-90